KFFT/FFT METAR and TAF weather

Enter ICAO airport designator
Station Type Date Time Source
KFFT METAR 2019/08/25 19:53 UTC NOAA

KFFT 251953Z AUTO 11007KT 10SM BKN060 28/18 A3000 RMK AO2 SLP153 T02830183


Station Type Date Time Source
KFFT Decoded METAR 2019/08/25 19:53 UTC NOAA

Station name not available
Aug 25, 2019 - 03:53 PM EDT / 2019.08.25 1953 UTC
Wind: from the ESE (110 degrees) at 8 MPH (7 KT):0
Visibility: 10 mile(s):0
Sky conditions: mostly cloudy
Temperature: 82.9 F (28.3 C)
Dew Point: 64.9 F (18.3 C)
Relative Humidity: 54%
Pressure (altimeter): 30 in. Hg (1015 hPa)
ob: KFFT 251953Z AUTO 11007KT 10SM BKN060 28/18 A3000 RMK AO2 SLP153 T02830183
cycle: 20

Station Type Date Time Source
KFFT TAF UTC NOAA

Error!

Example: see airport list